Time,TemperatureF,DewpointF,PressureIn,WindDirection,WindDirectionDegrees,WindSpeedMPH,WindSpeedGustMPH,Humidity,HourlyPrecipIn,Conditions,Clouds,dailyrainin,SoftwareType,DateUTC
2013-06-27 00:05:00,62.3,62.0,29.76,SW,236,0.0,-999.0,98,-99.99,,,0.00,weatherlink.com 1.10,2013-06-27 04:05:00,
2013-06-27 00:20:00,62.4,62.0,29.75,SW,232,0.0,-999.0,98,-99.99,,,0.00,weatherlink.com 1.10,2013-06-27 04:20:00,
2013-06-27 00:35:00,62.4,62.0,29.74,SW,220,0.0,-999.0,98,-99.99,,,0.00,weatherlink.com 1.10,2013-06-27 04:35:00,
2013-06-27 00:50:00,62.6,62.0,29.73,SSW,192,0.0,-999.0,98,-99.99,,,0.00,weatherlink.com 1.10,2013-06-27 04:50:00,
2013-06-27 01:05:00,62.5,62.0,29.74,South,188,0.0,-999.0,98,-99.99,,,0.00,weatherlink.com 1.10,2013-06-27 05:05:00,
2013-06-27 01:20:00,62.5,62.0,29.75,South,188,0.0,-999.0,98,-99.99,,,0.00,weatherlink.com 1.10,2013-06-27 05:20:00,
2013-06-27 01:35:00,62.5,62.0,29.75,South,188,0.0,-999.0,98,-99.99,,,0.00,weatherlink.com 1.10,2013-06-27 05:35:00,
2013-06-27 01:50:00,62.5,62.0,29.75,South,188,0.0,-999.0,98,-99.99,,,0.00,weatherlink.com 1.10,2013-06-27 05:50:00,
2013-06-27 02:06:00,62.5,62.0,29.75,SSW,198,0.0,-999.0,98,-99.99,,,0.00,weatherlink.com 1.10,2013-06-27 06:06:00,
2013-06-27 02:21:00,62.4,62.0,29.75,SSW,203,0.0,-999.0,99,-99.99,,,0.00,weatherlink.com 1.10,2013-06-27 06:21:00,
2013-06-27 02:36:00,62.5,62.0,29.74,SW,217,5.0,-999.0,99,-99.99,,,0.00,weatherlink.com 1.10,2013-06-27 06:36:00,
2013-06-27 02:51:00,62.6,62.0,29.74,SW,229,1.0,-999.0,99,-99.99,,,0.00,weatherlink.com 1.10,2013-06-27 06:51:00,
2013-06-27 03:06:00,62.8,62.0,29.74,SSW,207,3.0,-999.0,98,-99.99,,,0.00,weatherlink.com 1.10,2013-06-27 07:06:00,
2013-06-27 03:21:00,63.0,63.0,29.73,SSW,213,0.0,-999.0,99,-99.99,,,0.00,weatherlink.com 1.10,2013-06-27 07:21:00,
2013-06-27 03:36:00,63.0,63.0,29.73,SSW,213,0.0,-999.0,99,-99.99,,,0.00,weatherlink.com 1.10,2013-06-27 07:36:00,
2013-06-27 03:51:00,63.1,63.0,29.73,SW,217,0.0,-999.0,98,-99.99,,,0.00,weatherlink.com 1.10,2013-06-27 07:51:00,
2013-06-27 04:06:00,63.2,63.0,29.74,SW,218,0.0,-999.0,98,-99.99,,,0.00,weatherlink.com 1.10,2013-06-27 08:06:00,
2013-06-27 04:21:00,63.2,63.0,29.74,SW,218,0.0,-999.0,98,-99.99,,,0.00,weatherlink.com 1.10,2013-06-27 08:21:00,
2013-06-27 04:36:00,63.3,63.0,29.73,SW,218,0.0,-999.0,98,-99.99,,,0.01,weatherlink.com 1.10,2013-06-27 08:36:00,
2013-06-27 04:51:00,63.3,63.0,29.74,SW,218,0.0,-999.0,98,-99.99,,,0.01,weatherlink.com 1.10,2013-06-27 08:51:00,
2013-06-27 05:07:00,63.3,63.0,29.73,SW,218,0.0,-999.0,99,-99.99,,,0.01,weatherlink.com 1.10,2013-06-27 09:07:00,
2013-06-27 05:22:00,63.4,63.0,29.74,SW,218,0.0,-999.0,98,-99.99,,,0.01,weatherlink.com 1.10,2013-06-27 09:22:00,
2013-06-27 05:37:00,63.3,63.0,29.74,SW,218,0.0,-999.0,98,-99.99,,,0.01,weatherlink.com 1.10,2013-06-27 09:37:00,
2013-06-27 05:52:00,63.1,63.0,29.73,SW,218,0.0,-999.0,99,-99.99,,,0.01,weatherlink.com 1.10,2013-06-27 09:52:00,
2013-06-27 06:07:00,63.0,63.0,29.73,SW,218,0.0,-999.0,99,-99.99,,,0.01,weatherlink.com 1.10,2013-06-27 10:07:00,
2013-06-27 06:22:00,62.9,63.0,29.73,SW,218,0.0,-999.0,99,-99.99,,,0.01,weatherlink.com 1.10,2013-06-27 10:22:00,
2013-06-27 06:37:00,62.9,63.0,29.73,South,186,0.0,-999.0,99,-99.99,,,0.01,weatherlink.com 1.10,2013-06-27 10:37:00,
2013-06-27 06:52:00,62.9,63.0,29.73,South,186,0.0,-999.0,99,-99.99,,,0.01,weatherlink.com 1.10,2013-06-27 10:52:00,
2013-06-27 07:07:00,62.9,63.0,29.74,SSW,207,0.0,-999.0,99,-99.99,,,0.01,weatherlink.com 1.10,2013-06-27 11:07:00,
2013-06-27 07:22:00,62.9,63.0,29.74,SSW,210,1.0,-999.0,99,-99.99,,,0.01,weatherlink.com 1.10,2013-06-27 11:22:00,
2013-06-27 07:37:00,63.1,63.0,29.74,SSW,210,0.0,-999.0,99,-99.99,,,0.02,weatherlink.com 1.10,2013-06-27 11:37:00,
2013-06-27 07:52:00,63.3,63.0,29.73,SSW,210,0.0,-999.0,99,-99.99,,,0.02,weatherlink.com 1.10,2013-06-27 11:52:00,
2013-06-27 08:07:00,64.0,64.0,29.73,SSW,210,0.0,-999.0,99,-99.99,,,0.02,weatherlink.com 1.10,2013-06-27 12:07:00,
2013-06-27 08:23:00,64.9,65.0,29.74,SSW,210,0.0,-999.0,99,-99.99,,,0.02,weatherlink.com 1.10,2013-06-27 12:23:00,
2013-06-27 08:38:00,65.6,65.0,29.74,SSW,212,0.0,-999.0,99,-99.99,,,0.02,weatherlink.com 1.10,2013-06-27 12:38:00,
2013-06-27 08:53:00,66.2,66.0,29.74,SW,215,0.0,-999.0,98,-99.99,,,0.02,weatherlink.com 1.10,2013-06-27 12:53:00,
2013-06-27 09:08:00,66.7,66.0,29.74,SW,215,0.0,-999.0,98,-99.99,,,0.02,weatherlink.com 1.10,2013-06-27 13:08:00,
2013-06-27 09:23:00,67.5,66.0,29.73,SW,215,0.0,-999.0,96,-99.99,,,0.02,weatherlink.com 1.10,2013-06-27 13:23:00,
2013-06-27 09:38:00,68.6,67.0,29.74,SW,215,0.0,-999.0,94,-99.99,,,0.02,weatherlink.com 1.10,2013-06-27 13:38:00,
2013-06-27 09:53:00,69.7,67.0,29.73,WNW,299,0.0,-999.0,92,-99.99,,,0.02,weatherlink.com 1.10,2013-06-27 13:53:00,
2013-06-27 10:08:00,70.8,68.0,29.73,WNW,299,0.0,-999.0,91,-99.99,,,0.02,weatherlink.com 1.10,2013-06-27 14:08:00,
2013-06-27 10:23:00,71.4,67.0,29.72,NNW,345,3.0,-999.0,87,-99.99,,,0.02,weatherlink.com 1.10,2013-06-27 14:23:00,
2013-06-27 10:39:00,72.0,68.0,29.72,NNW,347,3.0,-999.0,87,-99.99,,,0.02,weatherlink.com 1.10,2013-06-27 14:39:00,
2013-06-27 10:54:00,73.2,69.0,29.71,NE,42,5.0,-999.0,86,-99.99,,,0.02,weatherlink.com 1.10,2013-06-27 14:54:00,
2013-06-27 11:09:00,73.7,68.0,29.71,NE,42,0.0,-999.0,81,-99.99,,,0.02,weatherlink.com 1.10,2013-06-27 15:09:00,
2013-06-27 11:24:00,73.9,68.0,29.71,North,360,0.0,-999.0,81,-99.99,,,0.02,weatherlink.com 1.10,2013-06-27 15:24:00,
2013-06-27 11:39:00,74.5,67.0,29.70,North,360,0.0,-999.0,77,-99.99,,,0.02,weatherlink.com 1.10,2013-06-27 15:39:00,
2013-06-27 11:54:00,75.3,68.0,29.70,ENE,70,0.0,-999.0,79,-99.99,,,0.02,weatherlink.com 1.10,2013-06-27 15:54:00,
2013-06-27 12:09:00,75.7,68.0,29.70,NNW,344,0.0,-999.0,78,-99.99,,,0.02,weatherlink.com 1.10,2013-06-27 16:09:00,
2013-06-27 12:24:00,76.2,69.0,29.70,NNW,341,0.0,-999.0,77,-99.99,,,0.02,weatherlink.com 1.10,2013-06-27 16:24:00,
2013-06-27 12:39:00,77.5,68.0,29.69,ESE,106,0.0,-999.0,73,-99.99,,,0.02,weatherlink.com 1.10,2013-06-27 16:39:00,
2013-06-27 12:54:00,77.1,68.0,29.69,ESE,109,0.0,-999.0,74,-99.99,,,0.02,weatherlink.com 1.10,2013-06-27 16:54:00,
2013-06-27 13:10:00,77.9,69.0,29.69,SE,131,0.0,-999.0,75,-99.99,,,0.02,weatherlink.com 1.10,2013-06-27 17:10:00,
2013-06-27 13:25:00,78.2,69.0,29.69,SSW,194,0.0,-999.0,74,-99.99,,,0.02,weatherlink.com 1.10,2013-06-27 17:25:00,
2013-06-27 13:40:00,79.7,70.0,29.69,SSE,161,0.0,-999.0,71,-99.99,,,0.02,weatherlink.com 1.10,2013-06-27 17:40:00,
2013-06-27 13:55:00,79.8,69.0,29.68,SSW,209,0.0,-999.0,69,-99.99,,,0.02,weatherlink.com 1.10,2013-06-27 17:55:00,
2013-06-27 14:10:00,78.8,67.0,29.68,SSW,209,0.0,-999.0,67,-99.99,,,0.02,weatherlink.com 1.10,2013-06-27 18:10:00,
2013-06-27 14:25:00,77.9,69.0,29.68,South,180,0.0,-999.0,73,-99.99,,,0.03,weatherlink.com 1.10,2013-06-27 18:25:00,
2013-06-27 14:40:00,75.6,68.0,29.68,WSW,240,3.0,-999.0,77,-99.99,,,0.07,weatherlink.com 1.10,2013-06-27 18:40:00,
2013-06-27 14:55:00,69.0,61.0,29.67,SSW,197,5.0,-999.0,76,-99.99,,,0.09,weatherlink.com 1.10,2013-06-27 18:55:00,
2013-06-27 15:10:00,65.9,61.0,29.69,WSW,246,0.0,-999.0,83,-99.99,,,0.10,weatherlink.com 1.10,2013-06-27 19:10:00,
2013-06-27 15:25:00,64.7,62.0,29.70,NW,306,0.0,-999.0,89,-99.99,,,0.10,weatherlink.com 1.10,2013-06-27 19:25:00,
2013-06-27 15:40:00,63.9,61.0,29.70,SSW,207,0.0,-999.0,90,-99.99,,,0.11,weatherlink.com 1.10,2013-06-27 19:40:00,
2013-06-27 15:56:00,63.9,62.0,29.69,SSW,211,0.0,-999.0,92,-99.99,,,0.11,weatherlink.com 1.10,2013-06-27 19:56:00,
2013-06-27 16:11:00,65.4,63.0,29.68,SSW,211,0.0,-999.0,92,-99.99,,,0.11,weatherlink.com 1.10,2013-06-27 20:11:00,
2013-06-27 16:26:00,68.6,66.0,29.67,SSW,211,0.0,-999.0,91,-99.99,,,0.11,weatherlink.com 1.10,2013-06-27 20:26:00,
2013-06-27 16:56:00,73.1,67.0,29.66,East,86,4.0,-999.0,81,-99.99,,,0.11,weatherlink.com 1.10,2013-06-27 20:56:00,
2013-06-27 17:11:00,74.7,67.0,29.66,ENE,58,4.0,-999.0,78,-99.99,,,0.11,weatherlink.com 1.10,2013-06-27 21:11:00,
2013-06-27 17:26:00,75.6,68.0,29.67,NE,47,0.0,-999.0,78,-99.99,,,0.11,weatherlink.com 1.10,2013-06-27 21:26:00,
2013-06-27 17:41:00,75.2,68.0,29.68,NE,49,4.0,-999.0,77,-99.99,,,0.11,weatherlink.com 1.10,2013-06-27 21:41:00,
2013-06-27 17:56:00,73.4,67.0,29.68,NE,53,3.0,-999.0,79,-99.99,,,0.11,weatherlink.com 1.10,2013-06-27 21:56:00,
2013-06-27 18:41:00,69.1,65.0,29.69,NW,324,0.0,-999.0,85,-99.99,,,0.11,weatherlink.com 1.10,2013-06-27 22:41:00,
2013-06-27 18:57:00,67.6,62.0,29.71,SW,217,10.0,-999.0,83,-99.99,,,0.11,weatherlink.com 1.10,2013-06-27 22:57:00,
2013-06-27 19:27:00,65.3,60.0,29.70,SW,214,7.0,-999.0,84,-99.99,,,0.16,weatherlink.com 1.10,2013-06-27 23:27:00,
2013-06-27 19:42:00,64.2,61.0,29.71,SSW,202,0.0,-999.0,89,-99.99,,,0.16,weatherlink.com 1.10,2013-06-27 23:42:00,
2013-06-27 19:57:00,63.8,61.0,29.70,SSW,203,0.0,-999.0,91,-99.99,,,0.16,weatherlink.com 1.10,2013-06-27 23:57:00,
2013-06-27 20:27:00,63.0,61.0,29.70,WNW,303,0.0,-999.0,93,-99.99,,,0.17,weatherlink.com 1.10,2013-06-28 00:27:00,
2013-06-27 20:42:00,62.4,60.0,29.70,West,272,2.0,-999.0,93,-99.99,,,0.17,weatherlink.com 1.10,2013-06-28 00:42:00,
2013-06-27 20:57:00,62.2,61.0,29.70,WSW,244,0.0,-999.0,94,-99.99,,,0.18,weatherlink.com 1.10,2013-06-28 00:57:00,
2013-06-27 21:42:00,62.2,61.0,29.67,SW,221,1.0,-999.0,95,-99.99,,,0.31,weatherlink.com 1.10,2013-06-28 01:42:00,
2013-06-27 21:57:00,62.2,61.0,29.68,WSW,254,0.0,-999.0,95,-99.99,,,0.31,weatherlink.com 1.10,2013-06-28 01:57:00,
2013-06-27 22:13:00,62.0,61.0,29.68,NNW,335,0.0,-999.0,96,-99.99,,,0.31,weatherlink.com 1.10,2013-06-28 02:13:00,
2013-06-27 22:28:00,61.9,61.0,29.67,WNW,282,1.0,-999.0,96,-99.99,,,0.31,weatherlink.com 1.10,2013-06-28 02:28:00,
2013-06-27 22:43:00,61.8,61.0,29.67,West,276,2.0,-999.0,96,-99.99,,,0.31,weatherlink.com 1.10,2013-06-28 02:43:00,
2013-06-27 22:58:00,61.8,61.0,29.67,WNW,298,0.0,-999.0,96,-99.99,,,0.32,weatherlink.com 1.10,2013-06-28 02:58:00,
2013-06-27 23:13:00,61.8,60.0,29.67,West,269,0.0,-999.0,95,-99.99,,,0.32,weatherlink.com 1.10,2013-06-28 03:13:00,
2013-06-27 23:28:00,62.0,61.0,29.67,WNW,282,0.0,-999.0,95,-99.99,,,0.32,weatherlink.com 1.10,2013-06-28 03:28:00,
2013-06-27 23:43:00,61.8,61.0,29.67,NE,53,0.0,-999.0,96,-99.99,,,0.32,weatherlink.com 1.10,2013-06-28 03:43:00,